Time;durP1;ratioP1;P1;durP2;ratioP2;P2;SDS_P1;SDS_P2;PMS_P1;PMS_P2;Temp;Humidity;BMP_temperature;BMP_pressure;BME280_temperature;BME280_humidity;BME280_pressure;Samples;Min_cycle;Max_cycle;Signal;HPM_P1;HPM_P2
2022/07/07 00:00:07;;;;;;;;;;;;;;;22.40;36.97;100642.84;5336962;32;34743;-72
2022/07/07 00:03:09;;;;;;;;;;;;;;;22.54;36.68;100638.16;5334995;32;34925;-79
2022/07/07 00:06:11;;;;;;;;;;;;;;;22.33;37.20;100641.69;5356980;32;33978;-79
2022/07/07 00:09:13;;;;;;;;;;;;;;;23.24;35.39;100642.81;5329492;32;34229;-79
2022/07/07 00:12:15;;;;;;;;;;;;;;;22.57;36.44;100641.44;5347250;32;35019;-72
2022/07/07 00:15:16;;;;;;;;;;;;;;;22.09;37.50;100649.09;5340998;32;34632;-80
2022/07/07 00:18:18;;;;;;;;;;;;;;;22.38;38.12;100652.00;5343605;32;45115;-73
2022/07/07 00:21:20;;;;;;;;;;;;;;;22.82;37.43;100656.25;5342743;32;34328;-79
2022/07/07 00:24:22;;;;;;;;;;;;;;;22.29;38.45;100650.97;5339078;32;35205;-80
2022/07/07 00:27:24;;;;;;;;;;;;;;;21.98;39.07;100658.00;5352984;32;35366;-77
2022/07/07 00:30:26;;;;;;;;;;;;;;;21.97;39.23;100668.81;5331589;32;35495;-71
2022/07/07 00:33:28;;;;;;;;;;;;;;;21.88;39.21;100671.25;5347636;32;34771;-79
2022/07/07 00:36:30;;;;;;;;;;;;;;;21.61;39.94;100657.47;5347032;32;34778;-78
2022/07/07 00:39:32;;;;;;;;;;;;;;;22.17;38.60;100652.84;5346381;32;36041;-81
2022/07/07 00:42:34;;;;;;;;;;;;;;;21.29;40.39;100655.56;5331318;32;34923;-80
2022/07/07 00:45:36;;;;;;;;;;;;;;;21.12;41.04;100655.16;5350438;32;34306;-77
2022/07/07 00:48:38;;;;;;;;;;;;;;;20.83;41.67;100656.47;5340854;32;34935;-81
2022/07/07 00:51:40;;;;;;;;;;;;;;;21.66;39.80;100657.09;5341366;32;34463;-72
2022/07/07 00:54:52;;;;;;;;;;;;;;;22.34;38.29;100651.41;5347442;32;34785;-72
2022/07/07 00:57:54;;;;;;;;;;;;;;;21.77;39.43;100655.25;5332296;32;44728;-78
2022/07/07 01:00:56;;;;;;;;;;;;;;;22.47;38.19;100658.41;5342434;32;34664;-72
2022/07/07 01:03:58;;;;;;;;;;;;;;;22.55;37.72;100656.81;5340478;32;35403;-73
2022/07/07 01:07:01;;;;;;;;;;;;;;;22.50;38.00;100648.31;5334453;32;34853;-78
2022/07/07 01:10:04;;;;;;;;;;;;;;;22.27;38.53;100657.41;5358698;32;35653;-79
2022/07/07 01:13:05;;;;;;;;;;;;;;;21.66;39.92;100657.09;5331029;32;35086;-72
2022/07/07 01:16:07;;;;;;;;;;;;;;;21.24;40.93;100657.69;5344477;32;35044;-78
2022/07/07 01:19:10;;;;;;;;;;;;;;;22.70;37.97;100655.47;5328511;32;34168;-73
2022/07/07 01:22:12;;;;;;;;;;;;;;;22.37;38.45;100651.16;5355950;32;34905;-73
2022/07/07 01:25:14;;;;;;;;;;;;;;;21.88;39.35;100651.69;5344421;32;35365;-72
2022/07/07 01:28:17;;;;;;;;;;;;;;;22.82;37.38;100658.09;5328463;32;34288;-79
2022/07/07 01:31:18;;;;;;;;;;;;;;;22.61;37.62;100656.28;5345020;32;37991;-78
2022/07/07 01:34:20;;;;;;;;;;;;;;;22.51;37.70;100649.16;5330421;32;34421;-79
2022/07/07 01:37:24;;;;;;;;;;;;;;;21.74;39.56;100665.34;5356741;32;35667;-80
2022/07/07 01:40:26;;;;;;;;;;;;;;;21.76;39.83;100663.38;5331696;32;35256;-73
2022/07/07 01:43:28;;;;;;;;;;;;;;;21.20;40.85;100650.91;5346297;32;35604;-80
2022/07/07 01:46:31;;;;;;;;;;;;;;;21.90;39.65;100652.44;5332026;32;35015;-73
2022/07/07 01:49:33;;;;;;;;;;;;;;;22.12;39.04;100660.41;5341676;32;34932;-79
2022/07/07 01:52:36;;;;;;;;;;;;;;;22.27;38.21;100654.75;5344785;32;34741;-73
2022/07/07 01:55:38;;;;;;;;;;;;;;;22.50;37.50;100653.66;5331266;32;34907;-76
2022/07/07 01:58:40;;;;;;;;;;;;;;;21.19;40.68;100664.37;5356386;32;34442;-79
2022/07/07 02:01:42;;;;;;;;;;;;;;;21.77;40.05;100659.75;5309978;32;34349;-79
2022/07/07 02:04:44;;;;;;;;;;;;;;;21.38;41.40;100667.31;5355693;32;35465;-79
2022/07/07 02:07:48;;;;;;;;;;;;;;;20.72;43.48;100660.94;5334020;32;36237;-72
2022/07/07 02:14:12;;;;;;;;;;;;;;;21.02;43.37;100655.88;5347333;32;35404;-71
2022/07/07 02:17:14;;;;;;;;;;;;;;;20.63;44.27;100665.19;5338977;32;34954;-79
2022/07/07 02:20:16;;;;;;;;;;;;;;;20.52;44.39;100665.13;5355407;32;35172;-72
2022/07/07 02:23:18;;;;;;;;;;;;;;;20.77;43.62;100658.75;5331982;32;35958;-72
2022/07/07 02:26:20;;;;;;;;;;;;;;;20.99;43.06;100652.59;5333288;32;48055;-79
2022/07/07 02:29:22;;;;;;;;;;;;;;;20.66;43.99;100656.91;5342370;32;35152;-73
2022/07/07 02:32:24;;;;;;;;;;;;;;;20.68;43.85;100659.50;5329542;32;34845;-73
2022/07/07 02:35:26;;;;;;;;;;;;;;;20.59;44.13;100653.00;5345405;32;34973;-79
2022/07/07 02:38:27;;;;;;;;;;;;;;;21.34;42.05;100661.38;5332333;32;34892;-78
2022/07/07 02:41:29;;;;;;;;;;;;;;;20.81;43.29;100662.91;5343247;32;34939;-77
2022/07/07 02:44:31;;;;;;;;;;;;;;;21.47;41.99;100663.94;5332080;32;35009;-72
2022/07/07 02:47:33;;;;;;;;;;;;;;;21.13;42.82;100657.72;5334723;32;34315;-79
2022/07/07 02:50:35;;;;;;;;;;;;;;;20.96;43.53;100659.03;5351360;32;34878;-79
2022/07/07 02:53:37;;;;;;;;;;;;;;;21.15;43.13;100661.13;5339893;32;34986;-76
2022/07/07 02:56:39;;;;;;;;;;;;;;;21.63;41.89;100664.37;5344937;32;35220;-72
2022/07/07 02:59:41;;;;;;;;;;;;;;;20.79;43.87;100654.16;5330147;32;34217;-73
2022/07/07 03:02:43;;;;;;;;;;;;;;;21.07;43.49;100653.72;5327338;32;34058;-79
2022/07/07 03:05:45;;;;;;;;;;;;;;;20.67;44.29;100655.09;5345920;32;34770;-73
2022/07/07 03:08:47;;;;;;;;;;;;;;;20.58;44.84;100664.66;5332552;32;34772;-72
2022/07/07 03:11:49;;;;;;;;;;;;;;;21.15;43.44;100652.25;5342087;32;46303;-79
2022/07/07 03:14:51;;;;;;;;;;;;;;;21.52;42.61;100651.06;5326935;32;35404;-78
2022/07/07 03:17:53;;;;;;;;;;;;;;;21.85;42.26;100649.28;5338227;32;34297;-79
2022/07/07 03:20:55;;;;;;;;;;;;;;;21.70;42.44;100656.72;5329981;32;34941;-72
2022/07/07 03:23:57;;;;;;;;;;;;;;;21.62;42.56;100654.66;5345399;32;34332;-74
2022/07/07 03:26:59;;;;;;;;;;;;;;;21.03;43.62;100648.72;5329869;32;35151;-78
2022/07/07 03:30:03;;;;;;;;;;;;;;;20.69;44.88;100656.69;5340707;32;35725;-79
2022/07/07 03:33:05;;;;;;;;;;;;;;;20.77;44.67;100659.62;5345541;32;35106;-73
2022/07/07 03:36:07;;;;;;;;;;;;;;;21.02;44.20;100658.56;5340855;32;35079;-79
2022/07/07 03:39:09;;;;;;;;;;;;;;;21.34;43.11;100656.03;5346152;32;34910;-79
2022/07/07 03:42:11;;;;;;;;;;;;;;;21.21;42.66;100665.97;5328455;32;34111;-79
2022/07/07 03:45:13;;;;;;;;;;;;;;;20.82;43.74;100654.78;5343653;32;34390;-72
2022/07/07 03:48:15;;;;;;;;;;;;;;;20.99;43.39;100663.28;5343176;32;35283;-73
2022/07/07 03:51:17;;;;;;;;;;;;;;;20.94;43.54;100666.31;5330109;32;35041;-73
2022/07/07 03:54:19;;;;;;;;;;;;;;;21.97;41.29;100661.66;5347620;32;43084;-73
2022/07/07 03:57:21;;;;;;;;;;;;;;;21.53;42.21;100663.44;5342528;32;34815;-73
2022/07/07 04:00:23;;;;;;;;;;;;;;;21.34;42.47;100676.59;5335994;32;34930;-72
2022/07/07 04:03:25;;;;;;;;;;;;;;;21.90;41.51;100669.34;5325130;32;35642;-80
2022/07/07 04:06:30;;;;;;;;;;;;;;;22.16;41.05;100667.22;5352471;32;34835;-76
2022/07/07 04:09:32;;;;;;;;;;;;;;;22.50;40.84;100669.72;5329607;32;34950;-77
2022/07/07 04:12:34;;;;;;;;;;;;;;;21.79;42.66;100665.81;5332263;32;35389;-73
2022/07/07 04:15:36;;;;;;;;;;;;;;;21.67;42.90;100664.16;5344081;32;34404;-72
2022/07/07 04:18:38;;;;;;;;;;;;;;;21.83;42.62;100656.56;5329361;32;34227;-73
2022/07/07 04:21:41;;;;;;;;;;;;;;;22.12;42.04;100663.06;5347805;32;34146;-79
2022/07/07 04:24:43;;;;;;;;;;;;;;;22.56;41.18;100653.13;5332678;32;34471;-79
2022/07/07 04:27:45;;;;;;;;;;;;;;;22.05;42.45;100663.69;5357458;32;34403;-72
2022/07/07 04:30:47;;;;;;;;;;;;;;;21.87;42.89;100663.38;5343763;32;34475;-79
2022/07/07 04:33:49;;;;;;;;;;;;;;;22.73;41.25;100656.19;5342275;32;45011;-80
2022/07/07 04:36:51;;;;;;;;;;;;;;;23.09;40.51;100655.72;5357619;32;34426;-72
2022/07/07 04:39:53;;;;;;;;;;;;;;;23.69;39.24;100656.66;5342335;32;35092;-80
2022/07/07 04:42:55;;;;;;;;;;;;;;;23.71;39.00;100646.66;5358565;32;34995;-72
2022/07/07 04:46:02;;;;;;;;;;;;;;;24.72;36.78;100645.41;5328943;32;34868;-79
2022/07/07 04:49:04;;;;;;;;;;;;;;;23.78;38.67;100658.53;5336883;32;35031;-78
2022/07/07 04:52:06;;;;;;;;;;;;;;;25.37;35.93;100643.66;5335564;32;34723;-72
2022/07/07 04:55:08;;;;;;;;;;;;;;;24.50;37.55;100643.03;5332176;32;34738;-72
2022/07/07 04:58:10;;;;;;;;;;;;;;;26.30;34.15;100644.31;5357664;32;34898;-79
2022/07/07 05:01:12;;;;;;;;;;;;;;;25.91;34.53;100647.31;5312520;32;34240;-73
2022/07/07 05:04:14;;;;;;;;;;;;;;;25.83;33.96;100649.94;5346810;32;34872;-73
2022/07/07 05:07:16;;;;;;;;;;;;;;;24.68;35.92;100646.69;5336947;32;35225;-79
2022/07/07 05:10:18;;;;;;;;;;;;;;;26.67;32.24;100638.75;5339851;32;34962;-82
2022/07/07 05:13:20;;;;;;;;;;;;;;;26.67;32.27;100648.69;5331994;32;46101;-85
2022/07/07 05:16:22;;;;;;;;;;;;;;;25.48;34.60;100650.66;5327244;32;35438;-76
2022/07/07 05:19:24;;;;;;;;;;;;;;;26.37;32.23;100648.06;5345252;32;34308;-69
2022/07/07 05:22:26;;;;;;;;;;;;;;;25.20;34.38;100652.50;5342483;32;35401;-72
2022/07/07 05:25:28;;;;;;;;;;;;;;;25.16;34.51;100651.09;5345528;32;34444;-84
2022/07/07 05:28:30;;;;;;;;;;;;;;;26.13;32.71;100646.00;5331088;32;35347;-80
2022/07/07 05:31:32;;;;;;;;;;;;;;;27.58;30.30;100645.47;5354402;32;35386;-72
2022/07/07 05:34:34;;;;;;;;;;;;;;;26.72;31.52;100649.03;5329080;32;35094;-72
2022/07/07 05:37:36;;;;;;;;;;;;;;;26.08;32.37;100651.03;5331655;32;35207;-76
2022/07/07 05:40:38;;;;;;;;;;;;;;;27.98;29.33;100650.16;5346410;32;34744;-76
2022/07/07 05:43:40;;;;;;;;;;;;;;;27.38;29.66;100651.13;5325259;32;34469;-76
2022/07/07 05:46:42;;;;;;;;;;;;;;;28.20;28.43;100648.66;5346414;32;34100;-74
2022/07/07 05:49:44;;;;;;;;;;;;;;;28.84;27.64;100644.25;5328691;32;35359;-73
2022/07/07 05:52:46;;;;;;;;;;;;;;;26.84;29.97;100653.16;5344548;32;34073;-74
2022/07/07 05:55:48;;;;;;;;;;;;;;;27.75;28.50;100639.12;5329089;32;34355;-81
2022/07/07 05:58:50;;;;;;;;;;;;;;;27.95;28.27;100645.06;5339967;32;43408;-74
2022/07/07 06:01:52;;;;;;;;;;;;;;;26.33;30.14;100645.84;5316886;32;36432;-75
2022/07/07 06:04:54;;;;;;;;;;;;;;;25.77;31.31;100650.53;5333236;32;33755;-78
2022/07/07 06:07:57;;;;;;;;;;;;;;;26.83;29.41;100645.25;5353288;32;34474;-83
2022/07/07 06:10:59;;;;;;;;;;;;;;;28.45;27.43;100636.87;5328138;32;34802;-75
2022/07/07 06:14:01;;;;;;;;;;;;;;;27.70;28.27;100641.50;5344799;32;34866;-77
2022/07/07 06:17:03;;;;;;;;;;;;;;;30.80;24.31;100626.91;5341810;32;37848;-78
2022/07/07 06:20:06;;;;;;;;;;;;;;;28.80;26.76;100642.94;5328130;32;34279;-72
2022/07/07 06:23:08;;;;;;;;;;;;;;;26.68;30.37;100648.53;5331205;32;34384;-73
2022/07/07 06:26:10;;;;;;;;;;;;;;;26.20;31.45;100641.69;5324784;32;34187;-75
2022/07/07 06:29:13;;;;;;;;;;;;;;;27.20;29.83;100647.69;5342416;32;34278;-88
2022/07/07 06:32:15;;;;;;;;;;;;;;;27.93;28.74;100647.09;5324193;32;34863;-80
2022/07/07 06:35:20;;;;;;;;;;;;;;;29.93;25.60;100638.91;5333937;32;35964;-75
2022/07/07 06:38:29;;;;;;;;;;;;;;;30.10;24.70;100634.28;5344976;32;35508;-74
2022/07/07 06:41:35;;;;;;;;;;;;;;;28.64;26.59;100630.25;5337797;32;33149;-78
2022/07/07 06:44:37;;;;;;;;;;;;;;;27.95;27.24;100643.25;5336755;32;34029;-74
2022/07/07 06:47:39;;;;;;;;;;;;;;;28.35;26.91;100638.06;5325222;32;35341;-75
2022/07/07 06:50:41;;;;;;;;;;;;;;;30.56;23.97;100630.66;5342443;32;35004;-77
2022/07/07 06:53:43;;;;;;;;;;;;;;;30.94;23.28;100623.34;5326239;32;34418;-75
2022/07/07 06:56:46;;;;;;;;;;;;;;;29.35;25.35;100620.44;5326746;32;35403;-80
2022/07/07 06:59:48;;;;;;;;;;;;;;;30.01;24.80;100624.47;5331693;32;34386;-72
2022/07/07 07:02:50;;;;;;;;;;;;;;;32.28;22.36;100620.16;5302871;32;44161;-81
2022/07/07 07:05:53;;;;;;;;;;;;;;;32.05;22.53;100624.97;5360019;32;34444;-80
2022/07/07 07:08:59;;;;;;;;;;;;;;;32.68;21.55;100625.94;5339686;32;34457;-80
2022/07/07 07:12:01;;;;;;;;;;;;;;;31.50;22.65;100626.44;5341058;32;36189;-73
2022/07/07 07:15:03;;;;;;;;;;;;;;;32.60;21.63;100618.78;5325981;32;34096;-71
2022/07/07 07:18:06;;;;;;;;;;;;;;;31.88;22.39;100623.53;5327651;32;34241;-76
2022/07/07 07:21:08;;;;;;;;;;;;;;;33.04;20.52;100622.22;5350279;32;34186;-74
2022/07/07 07:24:12;;;;;;;;;;;;;;;32.73;20.45;100618.03;5340452;32;33833;-81
2022/07/07 07:27:14;;;;;;;;;;;;;;;31.24;22.18;100616.94;5347059;32;35097;-72
2022/07/07 07:30:16;;;;;;;;;;;;;;;31.91;21.65;100628.59;5328358;32;34200;-73
2022/07/07 07:33:18;;;;;;;;;;;;;;;31.79;21.73;100626.38;5349988;32;34613;-82
2022/07/07 07:36:20;;;;;;;;;;;;;;;30.89;22.82;100617.63;5334804;32;44674;-79
2022/07/07 07:39:22;;;;;;;;;;;;;;;29.36;25.01;100625.66;5334405;32;34257;-81
2022/07/07 07:42:24;;;;;;;;;;;;;;;31.68;22.30;100624.13;5346971;32;35206;-81
2022/07/07 07:45:26;;;;;;;;;;;;;;;33.00;20.51;100618.22;5333232;32;34684;-78
2022/07/07 07:48:28;;;;;;;;;;;;;;;29.45;24.87;100623.78;5341862;32;34345;-77
2022/07/07 07:51:31;;;;;;;;;;;;;;;29.70;25.00;100619.13;5329660;32;34654;-79
2022/07/07 07:54:33;;;;;;;;;;;;;;;32.40;21.33;100611.53;5351077;32;34721;-81
2022/07/07 07:57:36;;;;;;;;;;;;;;;32.28;21.36;100603.84;5330456;32;35011;-77
2022/07/07 08:00:38;;;;;;;;;;;;;;;33.39;19.93;100602.09;5331471;32;34732;-83
2022/07/07 08:03:41;;;;;;;;;;;;;;;33.47;19.86;100611.97;5321581;32;34181;-79
2022/07/07 08:06:43;;;;;;;;;;;;;;;33.06;20.12;100606.53;5331270;32;34242;-80
2022/07/07 08:09:45;;;;;;;;;;;;;;;33.20;19.97;100608.28;5344655;32;34896;-92
2022/07/07 08:12:47;;;;;;;;;;;;;;;33.82;19.19;100609.16;5337505;32;35814;-80
2022/07/07 08:15:50;;;;;;;;;;;;;;;30.87;22.48;100614.28;5342996;32;45360;-80
2022/07/07 08:18:52;;;;;;;;;;;;;;;31.50;21.79;100610.13;5329904;32;34465;-85
2022/07/07 08:21:54;;;;;;;;;;;;;;;33.46;19.51;100607.56;5326649;32;35587;-79
2022/07/07 08:24:57;;;;;;;;;;;;;;;31.79;20.85;100610.06;5327658;32;45993;-79
2022/07/07 08:27:59;;;;;;;;;;;;;;;31.06;22.32;100611.00;5332812;32;34239;-84
2022/07/07 08:31:02;;;;;;;;;;;;;;;30.60;22.71;100603.00;5351781;32;36220;-75
2022/07/07 08:34:04;;;;;;;;;;;;;;;32.33;20.14;100606.00;5327536;32;35014;-71
2022/07/07 08:37:08;;;;;;;;;;;;;;;28.20;24.62;100621.62;5347439;32;35219;-84
2022/07/07 08:40:11;;;;;;;;;;;;;;;29.92;23.08;100601.19;5336374;32;35837;-74
2022/07/07 08:43:15;;;;;;;;;;;;;;;31.23;20.64;100603.47;5328596;32;34279;-73
2022/07/07 08:46:17;;;;;;;;;;;;;;;29.68;22.73;100602.19;5354176;32;36010;-86
2022/07/07 08:49:19;;;;;;;;;;;;;;;29.21;24.09;100607.66;5314508;32;44867;-78
2022/07/07 08:52:21;;;;;;;;;;;;;;;30.22;22.53;100595.91;5343626;32;34253;-80
2022/07/07 08:55:24;;;;;;;;;;;;;;;28.86;24.39;100596.25;5332779;32;34353;-77
2022/07/07 08:58:26;;;;;;;;;;;;;;;29.11;23.79;100597.00;5334921;32;34238;-76
2022/07/07 09:01:55;;;;;;;;;;;;;;;28.81;24.07;100590.50;5326626;32;35842;-81
2022/07/07 09:04:57;;;;;;;;;;;;;;;30.74;21.33;100583.22;5329002;32;44543;-81
2022/07/07 09:07:59;;;;;;;;;;;;;;;29.88;22.33;100580.88;5344870;32;34334;-76
2022/07/07 09:11:01;;;;;;;;;;;;;;;31.88;19.77;100572.75;5341682;32;36940;-80
2022/07/07 09:14:10;;;;;;;;;;;;;;;33.54;17.83;100571.12;5338878;32;34545;-77
2022/07/07 09:17:16;;;;;;;;;;;;;;;33.55;17.70;100557.28;5332296;32;34451;-72
2022/07/07 09:20:19;;;;;;;;;;;;;;;32.69;18.45;100566.94;5336330;32;35523;-86
2022/07/07 09:23:21;;;;;;;;;;;;;;;34.99;16.40;100571.19;5330397;32;34196;-75
2022/07/07 09:26:35;;;;;;;;;;;;;;;34.23;17.14;100559.91;5334592;32;34285;-84
2022/07/07 09:29:37;;;;;;;;;;;;;;;32.56;18.36;100563.06;5359664;32;33166;-73
2022/07/07 09:32:49;;;;;;;;;;;;;;;32.74;18.02;100568.00;5338230;32;33934;-80
2022/07/07 09:39:14;;;;;;;;;;;;;;;30.89;21.43;100585.06;5343764;32;35593;-84
2022/07/07 09:42:33;;;;;;;;;;;;;;;29.63;22.94;100583.78;5321610;32;34009;-80
2022/07/07 09:45:35;;;;;;;;;;;;;;;28.42;24.77;100580.44;5342820;32;35994;-77
2022/07/07 09:48:38;;;;;;;;;;;;;;;29.67;23.68;100584.25;5338334;32;34098;-86
2022/07/07 09:51:40;;;;;;;;;;;;;;;29.67;23.38;100585.09;5334425;32;34832;-80
2022/07/07 09:54:47;;;;;;;;;;;;;;;28.56;25.09;100589.72;5350680;32;35435;-75
2022/07/07 09:57:49;;;;;;;;;;;;;;;29.39;23.89;100586.59;5331699;32;46242;-73
2022/07/07 10:00:51;;;;;;;;;;;;;;;29.13;23.79;100576.91;5324692;32;35008;-78
2022/07/07 10:03:54;;;;;;;;;;;;;;;28.27;25.14;100568.59;5319314;32;34303;-76
2022/07/07 10:06:57;;;;;;;;;;;;;;;28.04;25.82;100584.66;5342009;32;34979;-71
2022/07/07 10:10:03;;;;;;;;;;;;;;;28.90;24.85;100573.22;5332753;32;35778;-81
2022/07/07 10:13:05;;;;;;;;;;;;;;;28.11;26.27;100582.97;5327944;32;34213;-74
2022/07/07 10:16:07;;;;;;;;;;;;;;;28.14;26.18;100579.06;5348410;32;34257;-81
2022/07/07 10:19:11;;;;;;;;;;;;;;;27.89;26.62;100583.66;5330872;32;34288;-80
2022/07/07 10:22:14;;;;;;;;;;;;;;;27.84;26.82;100578.72;5353602;32;35289;-85
2022/07/07 10:25:17;;;;;;;;;;;;;;;27.72;27.21;100580.91;5338545;32;35230;-81
2022/07/07 10:28:23;;;;;;;;;;;;;;;27.24;28.14;100581.56;5342819;32;44421;-81
2022/07/07 10:31:31;;;;;;;;;;;;;;;28.49;26.04;100572.50;5331108;32;34245;-85
2022/07/07 10:34:33;;;;;;;;;;;;;;;27.74;27.23;100573.47;5332550;32;35482;-79
2022/07/07 10:37:48;;;;;;;;;;;;;;;27.46;27.49;100580.16;5349028;32;37261;-81
2022/07/07 10:40:51;;;;;;;;;;;;;;;28.59;26.11;100563.16;5327874;32;42872;-78
2022/07/07 10:44:11;;;;;;;;;;;;;;;27.71;27.57;100576.53;5343839;32;34635;-81
2022/07/07 10:47:16;;;;;;;;;;;;;;;27.90;26.87;100571.81;5343418;32;34123;-80
2022/07/07 10:50:36;;;;;;;;;;;;;;;29.09;24.89;100566.59;5330256;32;43165;-73
2022/07/07 10:53:38;;;;;;;;;;;;;;;28.64;25.34;100559.94;5342189;32;34850;-75
2022/07/07 10:56:55;;;;;;;;;;;;;;;28.66;25.02;100562.47;5327079;32;34144;-83
2022/07/07 11:00:01;;;;;;;;;;;;;;;29.03;25.20;100559.19;5346186;32;46165;-83
2022/07/07 11:03:10;;;;;;;;;;;;;;;29.36;24.49;100549.03;5315690;32;35630;-76
2022/07/07 11:06:13;;;;;;;;;;;;;;;30.14;23.29;100543.47;5324582;32;35318;-77
2022/07/07 11:09:15;;;;;;;;;;;;;;;30.01;23.80;100539.63;5326830;32;35737;-80
2022/07/07 11:12:35;;;;;;;;;;;;;;;30.42;22.92;100534.72;5330608;32;35581;-78
2022/07/07 11:15:38;;;;;;;;;;;;;;;30.31;23.29;100529.72;5349014;32;34203;-83
2022/07/07 11:18:40;;;;;;;;;;;;;;;29.29;24.82;100532.66;5331693;32;34050;-71
2022/07/07 11:21:43;;;;;;;;;;;;;;;30.45;23.49;100527.03;5351445;32;35392;-83
2022/07/07 11:24:46;;;;;;;;;;;;;;;30.04;24.30;100518.44;5328535;32;34360;-78
2022/07/07 11:27:51;;;;;;;;;;;;;;;30.97;22.91;100517.97;5337010;32;34194;-76
2022/07/07 11:30:59;;;;;;;;;;;;;;;30.00;24.09;100508.13;5354045;32;44713;-80
2022/07/07 11:34:02;;;;;;;;;;;;;;;28.50;26.45;100514.72;5334973;32;34771;-81
2022/07/07 11:37:20;;;;;;;;;;;;;;;28.86;26.46;100512.41;5349136;32;34579;-87
2022/07/07 11:40:23;;;;;;;;;;;;;;;30.08;24.75;100494.53;5339330;32;44419;-77
2022/07/07 11:43:25;;;;;;;;;;;;;;;30.07;24.75;100495.53;5333171;32;34441;-80
2022/07/07 11:46:28;;;;;;;;;;;;;;;29.36;26.09;100505.72;5356131;32;34275;-74
2022/07/07 11:49:32;;;;;;;;;;;;;;;30.28;24.81;100500.28;5324770;32;34200;-76
2022/07/07 11:52:34;;;;;;;;;;;;;;;30.81;24.06;100482.06;5344174;32;34060;-80
2022/07/07 11:55:37;;;;;;;;;;;;;;;31.05;23.85;100494.50;5319911;32;34120;-80
2022/07/07 11:58:53;;;;;;;;;;;;;;;30.09;24.86;100490.78;5340262;32;34335;-75
2022/07/07 12:01:56;;;;;;;;;;;;;;;31.99;22.36;100481.66;5319590;32;47209;-76
2022/07/07 12:04:58;;;;;;;;;;;;;;;32.54;21.83;100469.12;5331245;32;34321;-83
2022/07/07 12:08:00;;;;;;;;;;;;;;;32.85;21.40;100477.63;5335977;32;34347;-83
2022/07/07 12:11:11;;;;;;;;;;;;;;;32.96;21.15;100472.66;5332499;32;35256;-84
2022/07/07 12:14:13;;;;;;;;;;;;;;;30.90;23.93;100481.75;5346834;32;34536;-85
2022/07/07 12:17:34;;;;;;;;;;;;;;;32.23;21.88;100467.63;5329413;32;34286;-73
2022/07/07 12:20:37;;;;;;;;;;;;;;;32.03;22.20;100462.06;5332406;32;35459;-94
2022/07/07 12:23:40;;;;;;;;;;;;;;;31.03;23.91;100456.66;5335276;32;33947;-76
2022/07/07 12:26:49;;;;;;;;;;;;;;;31.97;22.65;100446.53;5328413;32;34170;-80
2022/07/07 12:29:58;;;;;;;;;;;;;;;31.55;23.00;100442.81;5362454;32;44519;-72
2022/07/07 12:33:01;;;;;;;;;;;;;;;31.52;23.24;100434.22;5332473;32;34522;-77
2022/07/07 12:36:06;;;;;;;;;;;;;;;30.84;23.87;100444.53;5342643;32;34673;-79
2022/07/07 12:39:09;;;;;;;;;;;;;;;29.73;25.73;100436.44;5359161;32;34586;-77
2022/07/07 12:42:11;;;;;;;;;;;;;;;29.89;25.64;100433.56;5328770;32;34091;-77
2022/07/07 12:45:14;;;;;;;;;;;;;;;29.31;26.21;100429.63;5346203;32;34054;-80
2022/07/07 12:48:16;;;;;;;;;;;;;;;29.10;27.20;100427.56;5329941;32;34169;-69
2022/07/07 12:51:24;;;;;;;;;;;;;;;28.97;27.28;100425.44;5342209;32;45001;-73
2022/07/07 12:54:27;;;;;;;;;;;;;;;28.31;28.82;100421.34;5322423;32;35486;-74
2022/07/07 12:57:28;;;;;;;;;;;;;;;28.83;28.17;100421.59;5329714;32;34385;-73
2022/07/07 13:00:30;;;;;;;;;;;;;;;29.25;27.87;100417.66;5332348;32;34313;-77
2022/07/07 13:03:33;;;;;;;;;;;;;;;29.60;27.17;100415.38;5316302;32;36209;-78
2022/07/07 13:06:35;;;;;;;;;;;;;;;29.52;26.92;100410.88;5344262;32;34114;-80
2022/07/07 13:09:39;;;;;;;;;;;;;;;29.09;27.91;100417.78;5329240;32;34789;-79
2022/07/07 13:12:44;;;;;;;;;;;;;;;29.70;26.96;100415.12;5341426;32;34387;-82
2022/07/07 13:15:47;;;;;;;;;;;;;;;28.35;28.78;100417.28;5335558;32;35972;-76
2022/07/07 13:18:51;;;;;;;;;;;;;;;28.80;28.58;100410.31;5335292;32;43092;-78
2022/07/07 13:21:53;;;;;;;;;;;;;;;30.22;26.86;100408.88;5353193;32;35384;-81
2022/07/07 13:24:55;;;;;;;;;;;;;;;29.79;27.59;100409.44;5342372;32;35999;-81
2022/07/07 13:27:57;;;;;;;;;;;;;;;29.43;28.11;100398.38;5349058;32;34400;-75
2022/07/07 13:31:00;;;;;;;;;;;;;;;30.67;26.14;100392.41;5340718;32;34405;-79
2022/07/07 13:34:02;;;;;;;;;;;;;;;30.73;26.28;100388.09;5335310;32;34551;-73
2022/07/07 13:37:04;;;;;;;;;;;;;;;29.68;27.52;100391.75;5339931;32;34218;-87
2022/07/07 13:40:06;;;;;;;;;;;;;;;28.67;28.17;100391.12;5329878;32;34198;-78
2022/07/07 13:43:10;;;;;;;;;;;;;;;29.32;26.33;100382.59;5349857;32;34029;-84
2022/07/07 13:46:12;;;;;;;;;;;;;;;29.74;26.49;100381.22;5326204;32;34299;-86
2022/07/07 13:49:15;;;;;;;;;;;;;;;29.40;26.62;100377.09;5345196;32;33636;-79
2022/07/07 13:52:17;;;;;;;;;;;;;;;29.44;24.91;100383.84;5347776;32;34143;-88
2022/07/07 13:55:19;;;;;;;;;;;;;;;29.68;24.45;100364.69;5346707;32;43893;-81
2022/07/07 13:58:21;;;;;;;;;;;;;;;28.90;25.99;100375.75;5337533;32;34472;-76
2022/07/07 14:01:23;;;;;;;;;;;;;;;29.99;24.52;100377.22;5314224;32;35752;-73
2022/07/07 14:04:28;;;;;;;;;;;;;;;29.90;24.17;100368.38;5333857;32;36259;-80
2022/07/07 14:07:31;;;;;;;;;;;;;;;29.60;24.17;100372.06;5327286;32;34876;-75
2022/07/07 14:10:33;;;;;;;;;;;;;;;29.46;24.51;100365.56;5343643;32;34926;-77
2022/07/07 14:13:36;;;;;;;;;;;;;;;29.08;23.29;100354.69;5330464;32;35509;-76
2022/07/07 14:16:38;;;;;;;;;;;;;;;29.62;21.69;100354.59;5332558;32;34244;-78
2022/07/07 14:19:40;;;;;;;;;;;;;;;30.40;18.75;100363.22;5349316;32;34461;-76
2022/07/07 14:22:42;;;;;;;;;;;;;;;30.09;19.81;100356.13;5340650;32;35029;-78
2022/07/07 14:25:44;;;;;;;;;;;;;;;29.72;20.98;100353.50;5346360;32;34943;-75
2022/07/07 14:28:46;;;;;;;;;;;;;;;29.47;21.47;100356.41;5340781;32;34168;-77
2022/07/07 14:31:49;;;;;;;;;;;;;;;28.94;22.42;100363.59;5356554;32;43776;-75
2022/07/07 14:34:50;;;;;;;;;;;;;;;28.86;23.00;100352.81;5337584;32;37283;-75
2022/07/07 14:37:52;;;;;;;;;;;;;;;27.74;26.49;100353.91;5342665;32;35410;-76
2022/07/07 14:41:02;;;;;;;;;;;;;;;26.63;31.00;100375.06;5344544;32;34298;-78
2022/07/07 14:44:05;;;;;;;;;;;;;;;26.53;32.10;100371.63;5326526;32;35002;-75
2022/07/07 14:47:08;;;;;;;;;;;;;;;27.14;31.52;100371.31;5357587;32;35573;-79
2022/07/07 14:50:10;;;;;;;;;;;;;;;27.11;31.33;100370.78;5336489;32;34236;-75
2022/07/07 14:53:12;;;;;;;;;;;;;;;27.22;31.07;100373.16;5344575;32;35198;-75
2022/07/07 14:56:14;;;;;;;;;;;;;;;26.87;31.16;100379.66;5341338;32;34899;-75
2022/07/07 14:59:16;;;;;;;;;;;;;;;26.54;31.81;100374.19;5327917;32;34058;-76
2022/07/07 15:02:18;;;;;;;;;;;;;;;27.30;30.40;100373.16;5323293;32;44748;-75
2022/07/07 15:05:20;;;;;;;;;;;;;;;26.60;31.12;100373.53;5334614;32;34688;-76
2022/07/07 15:08:23;;;;;;;;;;;;;;;27.76;28.73;100374.34;5346664;32;33947;-76
2022/07/07 15:11:24;;;;;;;;;;;;;;;27.77;28.53;100383.28;5329228;32;35255;-77
2022/07/07 15:14:26;;;;;;;;;;;;;;;26.62;30.43;100384.16;5341775;32;34721;-75
2022/07/07 15:17:29;;;;;;;;;;;;;;;26.44;30.96;100379.69;5328130;32;35924;-76
2022/07/07 15:20:30;;;;;;;;;;;;;;;26.00;31.97;100394.25;5329036;32;35417;-79
2022/07/07 15:23:32;;;;;;;;;;;;;;;26.52;31.24;100396.91;5358379;32;34826;-76
2022/07/07 15:26:34;;;;;;;;;;;;;;;26.31;31.50;100398.12;5329165;32;34597;-75
2022/07/07 15:29:36;;;;;;;;;;;;;;;26.53;31.11;100409.38;5344663;32;35217;-74
2022/07/07 15:32:38;;;;;;;;;;;;;;;26.87;30.83;100396.69;5329702;32;33944;-75
2022/07/07 15:35:43;;;;;;;;;;;;;;;26.64;31.25;100406.37;5353036;32;33129;-78
2022/07/07 15:38:45;;;;;;;;;;;;;;;26.17;31.99;100409.53;5330256;32;35198;-76
2022/07/07 15:41:47;;;;;;;;;;;;;;;26.28;31.85;100408.41;5329881;32;34028;-78
2022/07/07 15:44:49;;;;;;;;;;;;;;;26.40;31.44;100418.75;5356347;32;44053;-77